sensor_id;sensor_type;location;lat;lon;timestamp;temperature;humidity
20574;DHT22;10445;50.216;7.912;2022-11-20T00:00:39;0.70;99.90
20574;DHT22;10445;50.216;7.912;2022-11-20T00:03:28;0.70;99.90
20574;DHT22;10445;50.216;7.912;2022-11-20T00:06:19;0.70;99.90
20574;DHT22;10445;50.216;7.912;2022-11-20T00:09:10;0.70;99.90
20574;DHT22;10445;50.216;7.912;2022-11-20T00:11:59;0.70;99.90
20574;DHT22;10445;50.216;7.912;2022-11-20T00:14:47;0.70;99.90
20574;DHT22;10445;50.216;7.912;2022-11-20T00:17:36;0.70;99.90
20574;DHT22;10445;50.216;7.912;2022-11-20T00:20:25;0.70;99.90
20574;DHT22;10445;50.216;7.912;2022-11-20T00:23:15;0.70;99.90
20574;DHT22;10445;50.216;7.912;2022-11-20T00:26:04;0.70;99.90
20574;DHT22;10445;50.216;7.912;2022-11-20T00:28:53;0.70;99.90
20574;DHT22;10445;50.216;7.912;2022-11-20T00:31:42;0.80;99.90
20574;DHT22;10445;50.216;7.912;2022-11-20T00:34:31;0.70;99.90
20574;DHT22;10445;50.216;7.912;2022-11-20T00:37:20;0.70;99.90
20574;DHT22;10445;50.216;7.912;2022-11-20T00:40:11;0.80;99.90
20574;DHT22;10445;50.216;7.912;2022-11-20T00:43:00;0.80;99.90
20574;DHT22;10445;50.216;7.912;2022-11-20T00:45:48;0.90;99.90
20574;DHT22;10445;50.216;7.912;2022-11-20T00:48:37;0.80;99.90
20574;DHT22;10445;50.216;7.912;2022-11-20T00:51:26;0.80;99.90
20574;DHT22;10445;50.216;7.912;2022-11-20T00:54:15;0.80;99.90
20574;DHT22;10445;50.216;7.912;2022-11-20T00:57:05;0.80;99.90
20574;DHT22;10445;50.216;7.912;2022-11-20T00:59:53;0.70;99.90
20574;DHT22;10445;50.216;7.912;2022-11-20T01:02:42;0.70;99.90
20574;DHT22;10445;50.216;7.912;2022-11-20T01:05:34;0.70;99.90
20574;DHT22;10445;50.216;7.912;2022-11-20T01:08:23;0.80;99.90
20574;DHT22;10445;50.216;7.912;2022-11-20T01:11:13;0.70;99.90
20574;DHT22;10445;50.216;7.912;2022-11-20T01:14:05;0.70;99.90
20574;DHT22;10445;50.216;7.912;2022-11-20T01:16:54;0.70;99.90
20574;DHT22;10445;50.216;7.912;2022-11-20T01:19:42;0.80;99.90
20574;DHT22;10445;50.216;7.912;2022-11-20T01:22:31;0.80;99.90
20574;DHT22;10445;50.216;7.912;2022-11-20T01:25:20;0.70;99.90
20574;DHT22;10445;50.216;7.912;2022-11-20T01:28:08;0.70;99.90
20574;DHT22;10445;50.216;7.912;2022-11-20T01:30:58;0.80;99.90
20574;DHT22;10445;50.216;7.912;2022-11-20T01:33:49;0.80;99.90
20574;DHT22;10445;50.216;7.912;2022-11-20T01:36:38;0.80;99.90
20574;DHT22;10445;50.216;7.912;2022-11-20T01:39:27;0.80;99.90
20574;DHT22;10445;50.216;7.912;2022-11-20T01:42:16;0.80;99.90
20574;DHT22;10445;50.216;7.912;2022-11-20T01:45:52;0.80;99.90
20574;DHT22;10445;50.216;7.912;2022-11-20T01:48:51;0.80;99.90
20574;DHT22;10445;50.216;7.912;2022-11-20T01:51:44;0.80;99.90
20574;DHT22;10445;50.216;7.912;2022-11-20T01:54:42;0.80;99.90
20574;DHT22;10445;50.216;7.912;2022-11-20T01:57:33;0.70;99.90
20574;DHT22;10445;50.216;7.912;2022-11-20T02:00:22;0.80;99.90
20574;DHT22;10445;50.216;7.912;2022-11-20T02:03:13;0.80;99.90
20574;DHT22;10445;50.216;7.912;2022-11-20T02:06:11;0.80;99.90
20574;DHT22;10445;50.216;7.912;2022-11-20T02:09:01;0.80;99.90
20574;DHT22;10445;50.216;7.912;2022-11-20T02:11:49;0.80;99.90
20574;DHT22;10445;50.216;7.912;2022-11-20T02:14:38;0.80;99.90
20574;DHT22;10445;50.216;7.912;2022-11-20T02:17:26;0.80;99.90
20574;DHT22;10445;50.216;7.912;2022-11-20T02:20:15;0.80;99.90
20574;DHT22;10445;50.216;7.912;2022-11-20T02:23:08;0.80;99.90
20574;DHT22;10445;50.216;7.912;2022-11-20T02:26:03;0.80;99.90
20574;DHT22;10445;50.216;7.912;2022-11-20T02:28:53;0.90;99.90
20574;DHT22;10445;50.216;7.912;2022-11-20T02:31:43;0.90;99.90
20574;DHT22;10445;50.216;7.912;2022-11-20T02:34:32;0.80;99.90
20574;DHT22;10445;50.216;7.912;2022-11-20T02:37:21;0.80;99.90
20574;DHT22;10445;50.216;7.912;2022-11-20T02:40:11;0.80;99.90
20574;DHT22;10445;50.216;7.912;2022-11-20T02:43:01;0.70;99.90
20574;DHT22;10445;50.216;7.912;2022-11-20T02:45:50;0.70;99.90
20574;DHT22;10445;50.216;7.912;2022-11-20T02:48:38;0.70;99.90
20574;DHT22;10445;50.216;7.912;2022-11-20T02:51:27;0.70;99.90
20574;DHT22;10445;50.216;7.912;2022-11-20T02:54:15;0.70;99.90
20574;DHT22;10445;50.216;7.912;2022-11-20T02:57:04;0.70;99.90
20574;DHT22;10445;50.216;7.912;2022-11-20T02:59:54;0.70;99.90
20574;DHT22;10445;50.216;7.912;2022-11-20T03:02:43;0.70;99.90
20574;DHT22;10445;50.216;7.912;2022-11-20T03:05:31;0.70;99.90
20574;DHT22;10445;50.216;7.912;2022-11-20T03:08:20;0.70;99.90
20574;DHT22;10445;50.216;7.912;2022-11-20T03:11:09;0.70;99.90
20574;DHT22;10445;50.216;7.912;2022-11-20T03:14:01;0.80;99.90
20574;DHT22;10445;50.216;7.912;2022-11-20T03:16:51;0.70;99.90
20574;DHT22;10445;50.216;7.912;2022-11-20T03:19:39;0.80;99.90
20574;DHT22;10445;50.216;7.912;2022-11-20T03:22:29;0.70;99.90
20574;DHT22;10445;50.216;7.912;2022-11-20T03:25:17;0.70;99.90
20574;DHT22;10445;50.216;7.912;2022-11-20T03:28:06;0.70;99.90
20574;DHT22;10445;50.216;7.912;2022-11-20T03:30:55;0.70;99.90
20574;DHT22;10445;50.216;7.912;2022-11-20T03:33:45;0.70;99.90
20574;DHT22;10445;50.216;7.912;2022-11-20T03:36:34;0.80;99.90
20574;DHT22;10445;50.216;7.912;2022-11-20T03:39:23;0.80;99.90
20574;DHT22;10445;50.216;7.912;2022-11-20T03:42:12;0.80;99.90
20574;DHT22;10445;50.216;7.912;2022-11-20T03:45:15;0.80;99.90
20574;DHT22;10445;50.216;7.912;2022-11-20T03:48:05;0.90;99.90
20574;DHT22;10445;50.216;7.912;2022-11-20T03:51:06;0.90;99.90
20574;DHT22;10445;50.216;7.912;2022-11-20T03:53:57;0.90;99.90
20574;DHT22;10445;50.216;7.912;2022-11-20T03:56:46;0.90;99.90
20574;DHT22;10445;50.216;7.912;2022-11-20T03:59:35;0.90;99.90
20574;DHT22;10445;50.216;7.912;2022-11-20T04:02:23;0.90;99.90
20574;DHT22;10445;50.216;7.912;2022-11-20T04:05:12;1.00;99.90
20574;DHT22;10445;50.216;7.912;2022-11-20T04:08:02;1.00;99.90
20574;DHT22;10445;50.216;7.912;2022-11-20T04:10:50;0.90;99.90
20574;DHT22;10445;50.216;7.912;2022-11-20T04:13:39;0.90;99.90
20574;DHT22;10445;50.216;7.912;2022-11-20T04:16:30;0.90;99.90
20574;DHT22;10445;50.216;7.912;2022-11-20T04:19:19;0.90;99.90
20574;DHT22;10445;50.216;7.912;2022-11-20T04:22:08;0.90;99.90
20574;DHT22;10445;50.216;7.912;2022-11-20T04:25:00;0.90;99.90
20574;DHT22;10445;50.216;7.912;2022-11-20T04:27:48;0.90;99.90
20574;DHT22;10445;50.216;7.912;2022-11-20T04:30:37;0.80;99.90
20574;DHT22;10445;50.216;7.912;2022-11-20T04:33:25;0.80;99.90
20574;DHT22;10445;50.216;7.912;2022-11-20T04:36:22;0.80;99.90
20574;DHT22;10445;50.216;7.912;2022-11-20T04:39:12;0.80;99.90
20574;DHT22;10445;50.216;7.912;2022-11-20T04:42:02;0.80;99.90
20574;DHT22;10445;50.216;7.912;2022-11-20T04:45:09;0.80;99.90
20574;DHT22;10445;50.216;7.912;2022-11-20T04:47:58;0.80;99.90
20574;DHT22;10445;50.216;7.912;2022-11-20T04:50:46;0.80;99.90
20574;DHT22;10445;50.216;7.912;2022-11-20T04:53:35;0.80;99.90
20574;DHT22;10445;50.216;7.912;2022-11-20T04:56:24;0.80;99.90
20574;DHT22;10445;50.216;7.912;2022-11-20T04:59:14;0.90;99.90
20574;DHT22;10445;50.216;7.912;2022-11-20T05:02:02;0.80;99.90
20574;DHT22;10445;50.216;7.912;2022-11-20T05:04:51;0.80;99.90
20574;DHT22;10445;50.216;7.912;2022-11-20T05:07:40;0.80;99.90
20574;DHT22;10445;50.216;7.912;2022-11-20T05:10:28;0.80;99.90
20574;DHT22;10445;50.216;7.912;2022-11-20T05:13:17;0.80;99.90
20574;DHT22;10445;50.216;7.912;2022-11-20T05:16:09;0.70;99.90
20574;DHT22;10445;50.216;7.912;2022-11-20T05:18:58;0.70;99.90
20574;DHT22;10445;50.216;7.912;2022-11-20T05:21:46;0.70;99.90
20574;DHT22;10445;50.216;7.912;2022-11-20T05:24:35;0.80;99.90
20574;DHT22;10445;50.216;7.912;2022-11-20T05:27:23;0.80;99.90
20574;DHT22;10445;50.216;7.912;2022-11-20T05:30:13;0.90;99.90
20574;DHT22;10445;50.216;7.912;2022-11-20T05:33:03;0.90;99.90
20574;DHT22;10445;50.216;7.912;2022-11-20T05:35:52;0.90;99.90
20574;DHT22;10445;50.216;7.912;2022-11-20T05:38:41;0.80;99.90
20574;DHT22;10445;50.216;7.912;2022-11-20T05:41:30;0.80;99.90
20574;DHT22;10445;50.216;7.912;2022-11-20T05:44:19;0.90;99.90
20574;DHT22;10445;50.216;7.912;2022-11-20T05:47:07;0.90;99.90
20574;DHT22;10445;50.216;7.912;2022-11-20T05:49:57;0.90;99.90
20574;DHT22;10445;50.216;7.912;2022-11-20T05:52:46;1.00;99.90
20574;DHT22;10445;50.216;7.912;2022-11-20T05:55:34;1.00;99.90
20574;DHT22;10445;50.216;7.912;2022-11-20T05:58:23;1.00;99.90
20574;DHT22;10445;50.216;7.912;2022-11-20T06:01:13;1.00;99.90
20574;DHT22;10445;50.216;7.912;2022-11-20T06:04:02;1.00;99.90
20574;DHT22;10445;50.216;7.912;2022-11-20T06:06:52;1.00;99.90
20574;DHT22;10445;50.216;7.912;2022-11-20T06:09:41;1.00;99.90
20574;DHT22;10445;50.216;7.912;2022-11-20T06:12:31;1.00;99.90
20574;DHT22;10445;50.216;7.912;2022-11-20T06:15:20;1.10;99.90
20574;DHT22;10445;50.216;7.912;2022-11-20T06:18:09;1.00;99.90
20574;DHT22;10445;50.216;7.912;2022-11-20T06:21:02;1.00;99.90
20574;DHT22;10445;50.216;7.912;2022-11-20T06:23:53;1.00;99.90
20574;DHT22;10445;50.216;7.912;2022-11-20T06:26:42;1.10;99.90
20574;DHT22;10445;50.216;7.912;2022-11-20T06:29:30;1.10;99.90
20574;DHT22;10445;50.216;7.912;2022-11-20T06:32:20;1.10;99.90
20574;DHT22;10445;50.216;7.912;2022-11-20T06:35:09;1.00;99.90
20574;DHT22;10445;50.216;7.912;2022-11-20T06:37:58;1.00;99.90
20574;DHT22;10445;50.216;7.912;2022-11-20T06:40:48;1.10;99.90
20574;DHT22;10445;50.216;7.912;2022-11-20T06:43:38;1.20;99.90
20574;DHT22;10445;50.216;7.912;2022-11-20T06:46:26;1.10;99.90
20574;DHT22;10445;50.216;7.912;2022-11-20T06:49:15;1.20;99.90
20574;DHT22;10445;50.216;7.912;2022-11-20T06:52:04;1.10;99.90
20574;DHT22;10445;50.216;7.912;2022-11-20T06:54:52;1.10;99.90
20574;DHT22;10445;50.216;7.912;2022-11-20T06:57:42;1.10;99.90
20574;DHT22;10445;50.216;7.912;2022-11-20T07:00:31;1.10;99.90
20574;DHT22;10445;50.216;7.912;2022-11-20T07:03:19;1.20;99.90
20574;DHT22;10445;50.216;7.912;2022-11-20T07:06:08;1.20;99.90
20574;DHT22;10445;50.216;7.912;2022-11-20T07:08:57;1.20;99.90
20574;DHT22;10445;50.216;7.912;2022-11-20T07:11:46;1.10;99.90
20574;DHT22;10445;50.216;7.912;2022-11-20T07:14:36;1.20;99.90
20574;DHT22;10445;50.216;7.912;2022-11-20T07:17:24;1.20;99.90
20574;DHT22;10445;50.216;7.912;2022-11-20T07:20:13;1.20;99.90
20574;DHT22;10445;50.216;7.912;2022-11-20T07:23:02;1.20;99.90
20574;DHT22;10445;50.216;7.912;2022-11-20T07:25:50;1.20;99.90
20574;DHT22;10445;50.216;7.912;2022-11-20T07:28:39;1.20;99.90
20574;DHT22;10445;50.216;7.912;2022-11-20T07:31:29;1.20;99.90
20574;DHT22;10445;50.216;7.912;2022-11-20T07:34:17;1.20;99.90
20574;DHT22;10445;50.216;7.912;2022-11-20T07:37:07;1.20;99.90
20574;DHT22;10445;50.216;7.912;2022-11-20T07:39:56;1.30;99.90
20574;DHT22;10445;50.216;7.912;2022-11-20T07:42:48;1.30;99.90
20574;DHT22;10445;50.216;7.912;2022-11-20T07:45:37;1.30;99.90
20574;DHT22;10445;50.216;7.912;2022-11-20T07:48:27;1.30;99.90
20574;DHT22;10445;50.216;7.912;2022-11-20T07:51:16;1.30;99.90
20574;DHT22;10445;50.216;7.912;2022-11-20T07:54:05;1.30;99.90
20574;DHT22;10445;50.216;7.912;2022-11-20T07:56:54;1.40;99.90
20574;DHT22;10445;50.216;7.912;2022-11-20T07:59:42;1.50;99.90
20574;DHT22;10445;50.216;7.912;2022-11-20T08:02:33;1.50;99.90
20574;DHT22;10445;50.216;7.912;2022-11-20T08:05:23;1.50;99.90
20574;DHT22;10445;50.216;7.912;2022-11-20T08:08:11;1.50;99.90
20574;DHT22;10445;50.216;7.912;2022-11-20T08:11:00;1.60;99.90
20574;DHT22;10445;50.216;7.912;2022-11-20T08:14:02;1.70;99.90
20574;DHT22;10445;50.216;7.912;2022-11-20T08:17:00;1.70;99.90
20574;DHT22;10445;50.216;7.912;2022-11-20T08:19:49;1.70;99.90
20574;DHT22;10445;50.216;7.912;2022-11-20T08:22:39;1.70;99.90
20574;DHT22;10445;50.216;7.912;2022-11-20T08:25:28;1.80;99.90
20574;DHT22;10445;50.216;7.912;2022-11-20T08:28:17;1.90;99.90
20574;DHT22;10445;50.216;7.912;2022-11-20T08:31:08;1.80;99.90
20574;DHT22;10445;50.216;7.912;2022-11-20T08:33:57;1.90;99.90
20574;DHT22;10445;50.216;7.912;2022-11-20T08:36:46;1.80;99.90
20574;DHT22;10445;50.216;7.912;2022-11-20T08:39:36;1.90;99.90
20574;DHT22;10445;50.216;7.912;2022-11-20T08:42:24;1.90;99.90
20574;DHT22;10445;50.216;7.912;2022-11-20T08:45:13;2.00;99.90
20574;DHT22;10445;50.216;7.912;2022-11-20T08:48:03;2.00;99.90
20574;DHT22;10445;50.216;7.912;2022-11-20T08:50:51;2.10;99.90
20574;DHT22;10445;50.216;7.912;2022-11-20T08:53:41;2.00;99.90
20574;DHT22;10445;50.216;7.912;2022-11-20T08:56:31;2.10;99.90
20574;DHT22;10445;50.216;7.912;2022-11-20T08:59:19;2.20;99.90
20574;DHT22;10445;50.216;7.912;2022-11-20T09:02:28;2.20;99.90
20574;DHT22;10445;50.216;7.912;2022-11-20T09:05:17;2.30;99.90
20574;DHT22;10445;50.216;7.912;2022-11-20T09:08:05;2.40;99.90
20574;DHT22;10445;50.216;7.912;2022-11-20T09:10:55;2.30;99.90
20574;DHT22;10445;50.216;7.912;2022-11-20T09:13:45;2.30;99.90
20574;DHT22;10445;50.216;7.912;2022-11-20T09:16:34;2.40;99.90
20574;DHT22;10445;50.216;7.912;2022-11-20T09:19:24;2.30;99.90
20574;DHT22;10445;50.216;7.912;2022-11-20T09:22:28;2.20;99.90
20574;DHT22;10445;50.216;7.912;2022-11-20T09:25:17;2.30;99.90
20574;DHT22;10445;50.216;7.912;2022-11-20T09:28:06;2.30;99.90
20574;DHT22;10445;50.216;7.912;2022-11-20T09:30:56;2.40;99.90
20574;DHT22;10445;50.216;7.912;2022-11-20T09:33:44;2.40;99.90
20574;DHT22;10445;50.216;7.912;2022-11-20T09:36:33;2.50;99.90
20574;DHT22;10445;50.216;7.912;2022-11-20T09:39:22;2.50;99.90
20574;DHT22;10445;50.216;7.912;2022-11-20T09:42:27;2.50;99.90
20574;DHT22;10445;50.216;7.912;2022-11-20T09:45:25;2.60;99.90
20574;DHT22;10445;50.216;7.912;2022-11-20T09:48:27;2.60;99.90
20574;DHT22;10445;50.216;7.912;2022-11-20T09:51:26;2.70;99.90
20574;DHT22;10445;50.216;7.912;2022-11-20T09:54:18;2.70;99.90
20574;DHT22;10445;50.216;7.912;2022-11-20T09:57:10;2.70;99.90
20574;DHT22;10445;50.216;7.912;2022-11-20T10:00:01;2.60;99.90
20574;DHT22;10445;50.216;7.912;2022-11-20T10:02:54;2.50;99.90
20574;DHT22;10445;50.216;7.912;2022-11-20T10:05:47;2.60;99.90
20574;DHT22;10445;50.216;7.912;2022-11-20T10:08:40;2.60;99.90
20574;DHT22;10445;50.216;7.912;2022-11-20T10:11:38;2.60;99.90
20574;DHT22;10445;50.216;7.912;2022-11-20T10:14:38;2.60;99.90
20574;DHT22;10445;50.216;7.912;2022-11-20T10:17:56;2.60;99.90
20574;DHT22;10445;50.216;7.912;2022-11-20T10:20:54;2.60;99.90
20574;DHT22;10445;50.216;7.912;2022-11-20T10:23:57;2.60;99.90
20574;DHT22;10445;50.216;7.912;2022-11-20T10:26:53;2.60;99.90
20574;DHT22;10445;50.216;7.912;2022-11-20T10:29:49;2.70;99.90
20574;DHT22;10445;50.216;7.912;2022-11-20T10:32:42;2.70;99.90
20574;DHT22;10445;50.216;7.912;2022-11-20T10:35:35;2.80;99.90
20574;DHT22;10445;50.216;7.912;2022-11-20T10:38:34;2.80;99.90
20574;DHT22;10445;50.216;7.912;2022-11-20T10:41:27;2.90;99.90
20574;DHT22;10445;50.216;7.912;2022-11-20T10:44:26;3.00;99.90
20574;DHT22;10445;50.216;7.912;2022-11-20T10:47:51;3.10;99.90
20574;DHT22;10445;50.216;7.912;2022-11-20T10:50:49;3.10;99.90
20574;DHT22;10445;50.216;7.912;2022-11-20T10:53:59;3.20;99.90
20574;DHT22;10445;50.216;7.912;2022-11-20T10:56:53;3.40;99.90
20574;DHT22;10445;50.216;7.912;2022-11-20T10:59:59;3.50;99.90
20574;DHT22;10445;50.216;7.912;2022-11-20T11:02:50;3.60;99.90
20574;DHT22;10445;50.216;7.912;2022-11-20T11:05:42;3.70;99.90
20574;DHT22;10445;50.216;7.912;2022-11-20T11:08:36;3.80;99.90
20574;DHT22;10445;50.216;7.912;2022-11-20T11:11:30;3.90;99.90
20574;DHT22;10445;50.216;7.912;2022-11-20T11:14:19;3.80;98.10
20574;DHT22;10445;50.216;7.912;2022-11-20T11:17:22;3.70;97.00
20574;DHT22;10445;50.216;7.912;2022-11-20T11:20:17;3.80;96.70
20574;DHT22;10445;50.216;7.912;2022-11-20T11:23:27;3.90;96.70
20574;DHT22;10445;50.216;7.912;2022-11-20T11:26:20;4.10;96.70
20574;DHT22;10445;50.216;7.912;2022-11-20T11:29:18;4.20;96.70
20574;DHT22;10445;50.216;7.912;2022-11-20T11:32:10;4.20;95.20
20574;DHT22;10445;50.216;7.912;2022-11-20T11:35:01;4.10;92.20
20574;DHT22;10445;50.216;7.912;2022-11-20T11:37:52;4.10;91.50
20574;DHT22;10445;50.216;7.912;2022-11-20T11:40:43;4.20;90.80
20574;DHT22;10445;50.216;7.912;2022-11-20T11:43:34;4.20;91.70
20574;DHT22;10445;50.216;7.912;2022-11-20T11:46:50;4.10;90.40
20574;DHT22;10445;50.216;7.912;2022-11-20T11:49:41;4.10;92.70
20574;DHT22;10445;50.216;7.912;2022-11-20T11:52:31;4.10;94.30
20574;DHT22;10445;50.216;7.912;2022-11-20T11:55:31;4.00;95.50
20574;DHT22;10445;50.216;7.912;2022-11-20T11:58:38;4.10;96.60
20574;DHT22;10445;50.216;7.912;2022-11-20T12:01:32;4.00;97.10
20574;DHT22;10445;50.216;7.912;2022-11-20T12:04:36;4.10;97.90
20574;DHT22;10445;50.216;7.912;2022-11-20T12:07:37;4.10;98.10
20574;DHT22;10445;50.216;7.912;2022-11-20T12:10:41;4.00;98.50
20574;DHT22;10445;50.216;7.912;2022-11-20T12:13:41;4.10;99.90
20574;DHT22;10445;50.216;7.912;2022-11-20T12:16:36;4.10;99.90
20574;DHT22;10445;50.216;7.912;2022-11-20T12:19:27;4.00;99.60
20574;DHT22;10445;50.216;7.912;2022-11-20T12:22:24;3.90;99.90
20574;DHT22;10445;50.216;7.912;2022-11-20T12:25:19;4.00;99.90
20574;DHT22;10445;50.216;7.912;2022-11-20T12:28:23;4.00;99.90
20574;DHT22;10445;50.216;7.912;2022-11-20T12:31:26;4.20;99.90
20574;DHT22;10445;50.216;7.912;2022-11-20T12:34:30;4.30;99.90
20574;DHT22;10445;50.216;7.912;2022-11-20T12:37:33;4.20;99.90
20574;DHT22;10445;50.216;7.912;2022-11-20T12:40:32;4.20;99.90
20574;DHT22;10445;50.216;7.912;2022-11-20T12:43:26;4.30;99.90
20574;DHT22;10445;50.216;7.912;2022-11-20T12:46:36;4.30;99.90
20574;DHT22;10445;50.216;7.912;2022-11-20T12:49:36;4.30;99.90
20574;DHT22;10445;50.216;7.912;2022-11-20T12:52:38;4.20;99.90
20574;DHT22;10445;50.216;7.912;2022-11-20T12:55:36;4.10;99.90
20574;DHT22;10445;50.216;7.912;2022-11-20T12:58:35;4.30;99.90
20574;DHT22;10445;50.216;7.912;2022-11-20T13:01:34;4.40;99.90
20574;DHT22;10445;50.216;7.912;2022-11-20T13:04:49;4.50;99.90
20574;DHT22;10445;50.216;7.912;2022-11-20T13:07:41;4.50;99.90
20574;DHT22;10445;50.216;7.912;2022-11-20T13:10:35;4.50;99.90
20574;DHT22;10445;50.216;7.912;2022-11-20T13:13:32;4.50;99.90
20574;DHT22;10445;50.216;7.912;2022-11-20T13:16:28;4.50;99.90
20574;DHT22;10445;50.216;7.912;2022-11-20T13:19:19;4.50;99.90
20574;DHT22;10445;50.216;7.912;2022-11-20T13:22:09;4.60;99.90
20574;DHT22;10445;50.216;7.912;2022-11-20T13:24:58;4.80;99.90
20574;DHT22;10445;50.216;7.912;2022-11-20T13:27:47;4.90;99.90
20574;DHT22;10445;50.216;7.912;2022-11-20T13:30:47;5.00;99.90
20574;DHT22;10445;50.216;7.912;2022-11-20T13:33:37;5.20;99.90
20574;DHT22;10445;50.216;7.912;2022-11-20T13:36:28;5.20;99.90
20574;DHT22;10445;50.216;7.912;2022-11-20T13:39:25;5.20;99.90
20574;DHT22;10445;50.216;7.912;2022-11-20T13:42:23;5.40;99.90
20574;DHT22;10445;50.216;7.912;2022-11-20T13:45:23;5.50;99.90
20574;DHT22;10445;50.216;7.912;2022-11-20T13:48:21;5.40;99.90
20574;DHT22;10445;50.216;7.912;2022-11-20T13:51:23;5.40;99.90
20574;DHT22;10445;50.216;7.912;2022-11-20T13:54:41;5.40;99.90
20574;DHT22;10445;50.216;7.912;2022-11-20T13:57:58;5.40;99.90
20574;DHT22;10445;50.216;7.912;2022-11-20T14:00:56;5.30;99.90
20574;DHT22;10445;50.216;7.912;2022-11-20T14:03:46;5.40;99.90
20574;DHT22;10445;50.216;7.912;2022-11-20T14:06:53;5.40;99.90
20574;DHT22;10445;50.216;7.912;2022-11-20T14:09:51;5.40;99.90
20574;DHT22;10445;50.216;7.912;2022-11-20T14:12:41;5.30;99.90
20574;DHT22;10445;50.216;7.912;2022-11-20T14:15:31;5.40;99.90
20574;DHT22;10445;50.216;7.912;2022-11-20T14:18:21;5.40;99.90
20574;DHT22;10445;50.216;7.912;2022-11-20T14:21:10;5.40;99.90
20574;DHT22;10445;50.216;7.912;2022-11-20T14:24:05;5.40;99.90
20574;DHT22;10445;50.216;7.912;2022-11-20T14:26:55;5.40;99.90
20574;DHT22;10445;50.216;7.912;2022-11-20T14:29:45;5.40;99.90
20574;DHT22;10445;50.216;7.912;2022-11-20T14:32:35;5.40;99.90
20574;DHT22;10445;50.216;7.912;2022-11-20T14:35:26;5.40;99.90
20574;DHT22;10445;50.216;7.912;2022-11-20T14:38:17;5.30;99.90
20574;DHT22;10445;50.216;7.912;2022-11-20T14:41:07;5.30;99.90
20574;DHT22;10445;50.216;7.912;2022-11-20T14:43:58;5.30;99.90
20574;DHT22;10445;50.216;7.912;2022-11-20T14:46:50;5.30;99.90
20574;DHT22;10445;50.216;7.912;2022-11-20T14:49:40;5.30;99.90
20574;DHT22;10445;50.216;7.912;2022-11-20T14:52:29;5.30;99.90
20574;DHT22;10445;50.216;7.912;2022-11-20T14:55:29;5.30;99.90
20574;DHT22;10445;50.216;7.912;2022-11-20T14:58:21;5.30;99.90
20574;DHT22;10445;50.216;7.912;2022-11-20T15:01:13;5.20;99.90
20574;DHT22;10445;50.216;7.912;2022-11-20T15:04:05;5.10;99.90
20574;DHT22;10445;50.216;7.912;2022-11-20T15:06:57;5.10;99.90
20574;DHT22;10445;50.216;7.912;2022-11-20T15:09:45;5.00;99.90
20574;DHT22;10445;50.216;7.912;2022-11-20T15:12:37;5.00;99.90
20574;DHT22;10445;50.216;7.912;2022-11-20T15:15:30;5.00;99.90
20574;DHT22;10445;50.216;7.912;2022-11-20T15:18:22;5.00;99.90
20574;DHT22;10445;50.216;7.912;2022-11-20T15:21:13;5.00;99.90
20574;DHT22;10445;50.216;7.912;2022-11-20T15:24:02;4.90;99.90
20574;DHT22;10445;50.216;7.912;2022-11-20T15:26:50;4.90;99.90
20574;DHT22;10445;50.216;7.912;2022-11-20T15:29:39;4.80;99.90
20574;DHT22;10445;50.216;7.912;2022-11-20T15:32:28;4.80;99.90
20574;DHT22;10445;50.216;7.912;2022-11-20T15:35:18;4.80;99.90
20574;DHT22;10445;50.216;7.912;2022-11-20T15:38:07;4.80;99.90
20574;DHT22;10445;50.216;7.912;2022-11-20T15:40:56;4.80;99.90
20574;DHT22;10445;50.216;7.912;2022-11-20T15:43:44;4.80;99.90
20574;DHT22;10445;50.216;7.912;2022-11-20T15:46:36;4.80;99.90
20574;DHT22;10445;50.216;7.912;2022-11-20T15:49:27;4.90;99.90
20574;DHT22;10445;50.216;7.912;2022-11-20T15:52:17;4.80;99.90
20574;DHT22;10445;50.216;7.912;2022-11-20T15:55:09;4.90;99.90
20574;DHT22;10445;50.216;7.912;2022-11-20T15:57:57;4.90;99.90
20574;DHT22;10445;50.216;7.912;2022-11-20T16:00:46;4.90;99.90
20574;DHT22;10445;50.216;7.912;2022-11-20T16:03:35;4.90;99.90
20574;DHT22;10445;50.216;7.912;2022-11-20T16:06:23;4.90;99.90
20574;DHT22;10445;50.216;7.912;2022-11-20T16:09:13;4.90;99.90
20574;DHT22;10445;50.216;7.912;2022-11-20T16:12:02;4.90;99.90
20574;DHT22;10445;50.216;7.912;2022-11-20T16:14:51;4.80;99.90
20574;DHT22;10445;50.216;7.912;2022-11-20T16:18:00;4.80;99.90
20574;DHT22;10445;50.216;7.912;2022-11-20T16:20:49;4.80;99.90
20574;DHT22;10445;50.216;7.912;2022-11-20T16:23:38;4.70;99.80
20574;DHT22;10445;50.216;7.912;2022-11-20T16:26:29;4.60;99.90
20574;DHT22;10445;50.216;7.912;2022-11-20T16:29:18;4.60;99.90
20574;DHT22;10445;50.216;7.912;2022-11-20T16:32:06;4.50;99.90
20574;DHT22;10445;50.216;7.912;2022-11-20T16:34:57;4.40;99.90
20574;DHT22;10445;50.216;7.912;2022-11-20T16:37:45;4.50;99.90
20574;DHT22;10445;50.216;7.912;2022-11-20T16:40:34;4.50;99.90
20574;DHT22;10445;50.216;7.912;2022-11-20T16:43:24;4.50;99.90
20574;DHT22;10445;50.216;7.912;2022-11-20T16:46:13;4.50;99.90
20574;DHT22;10445;50.216;7.912;2022-11-20T16:49:03;4.50;99.90
20574;DHT22;10445;50.216;7.912;2022-11-20T16:51:52;4.40;99.90
20574;DHT22;10445;50.216;7.912;2022-11-20T16:54:41;4.50;99.90
20574;DHT22;10445;50.216;7.912;2022-11-20T16:57:30;4.50;99.90
20574;DHT22;10445;50.216;7.912;2022-11-20T17:00:20;4.50;99.90
20574;DHT22;10445;50.216;7.912;2022-11-20T17:03:09;4.50;99.90
20574;DHT22;10445;50.216;7.912;2022-11-20T17:05:58;4.60;99.90
20574;DHT22;10445;50.216;7.912;2022-11-20T17:08:47;4.50;99.90
20574;DHT22;10445;50.216;7.912;2022-11-20T17:11:36;4.50;99.90
20574;DHT22;10445;50.216;7.912;2022-11-20T17:14:24;4.40;99.90
20574;DHT22;10445;50.216;7.912;2022-11-20T17:17:14;4.50;99.90
20574;DHT22;10445;50.216;7.912;2022-11-20T17:20:04;4.40;99.90
20574;DHT22;10445;50.216;7.912;2022-11-20T17:22:53;4.40;99.90
20574;DHT22;10445;50.216;7.912;2022-11-20T17:25:41;4.40;99.90
20574;DHT22;10445;50.216;7.912;2022-11-20T17:28:30;4.40;99.90
20574;DHT22;10445;50.216;7.912;2022-11-20T17:31:19;4.40;99.90
20574;DHT22;10445;50.216;7.912;2022-11-20T17:34:11;4.40;99.90
20574;DHT22;10445;50.216;7.912;2022-11-20T17:37:00;4.40;99.90
20574;DHT22;10445;50.216;7.912;2022-11-20T17:39:49;4.40;99.90
20574;DHT22;10445;50.216;7.912;2022-11-20T17:42:38;4.40;99.90
20574;DHT22;10445;50.216;7.912;2022-11-20T17:45:26;4.40;99.90
20574;DHT22;10445;50.216;7.912;2022-11-20T17:48:15;4.40;99.90
20574;DHT22;10445;50.216;7.912;2022-11-20T17:51:06;4.40;99.90
20574;DHT22;10445;50.216;7.912;2022-11-20T17:53:55;4.40;99.90
20574;DHT22;10445;50.216;7.912;2022-11-20T17:56:44;4.40;99.90
20574;DHT22;10445;50.216;7.912;2022-11-20T17:59:50;4.40;99.90
20574;DHT22;10445;50.216;7.912;2022-11-20T18:02:39;4.40;99.90
20574;DHT22;10445;50.216;7.912;2022-11-20T18:05:27;4.40;99.90
20574;DHT22;10445;50.216;7.912;2022-11-20T18:08:17;4.40;99.90
20574;DHT22;10445;50.216;7.912;2022-11-20T18:11:10;4.40;99.90
20574;DHT22;10445;50.216;7.912;2022-11-20T18:14:00;4.40;99.90
20574;DHT22;10445;50.216;7.912;2022-11-20T18:17:09;4.40;99.90
20574;DHT22;10445;50.216;7.912;2022-11-20T18:19:58;4.50;99.90
20574;DHT22;10445;50.216;7.912;2022-11-20T18:23:07;4.40;99.90